Messages - map view · info · telemetry · weather · raw · status · beacons · messages · bulletins · browse · moving · my account
Callsign:
Show:

Loading message packets...

APRS messages are stored for 14 days. It is possible to search using wildcards (*?) after a prefix.

2019-05-23 09:15:02 EDT: ILXTOR>NWS_WARN: 231345z,TORNADO,ILC101-159
2019-05-23 09:15:22 EDT: WB2IFS-10>WB2IFS-1: testing aprs
2019-05-23 09:15:27 EDT: DB0TS-10>DB0TS-9: T#001,000,000,000,000,000,00000000,Test
2019-05-23 09:15:47 EDT: N7QME-2>N7QME: dew 48.5 48.1 50.7 49.8 47.6 48.5 50.3 47.2
2019-05-23 09:15:54 EDT: WB2IFS-10>WB2IFS-1: testing aprs
2019-05-23 09:15:56 EDT: SHLBTP>SHLBTP: Info - Cabinet Temp = 76.2F Vcc = 13.6V
2019-05-23 09:15:58 EDT: ICTFFW>NWS-WARN: 231345z,FLASH_FLOOD,KSC099
2019-05-23 09:15:58 EDT: ICTFFW>NWS_WARN: 231345z,FLASH_FLOOD,KSC099
2019-05-23 09:15:58 EDT: ILXTOR>NWS-WARN: 231345z,TORNADO,ILC101-159
2019-05-23 09:15:58 EDT: ILXTOR>NWS_WARN: 231345z,TORNADO,ILC101-159
2019-05-23 09:16:04 EDT: VMWMWW>BOM_WARN: 241400z,WIND,VIC_MW001>003-005>006
2019-05-23 09:16:04 EDT: VMWMWW>BOMVMW: Strong Wind Warning for coastal waters between SA-VIC
2019-05-23 09:16:04 EDT: VMWMWW>BOMVMW: Border and Lakes Entrance and for Port Phillip and Western
2019-05-23 09:16:04 EDT: VMWMWW>BOMVMW: Port for Friday
2019-05-23 09:16:07 EDT: TMWMWW>BOM_WARN: 241400z,WIND,TAS_MW001>004-007>009
2019-05-23 09:16:07 EDT: TMWMWW>BOMTMW: Strong Wind Warning for coastal waters between South East
2019-05-23 09:16:07 EDT: TMWMWW>BOMTMW: Cape and Wineglass Bay and for Banks Strait and Franklin
2019-05-23 09:16:07 EDT: TMWMWW>BOMTMW: Sound for Friday
2019-05-23 09:16:11 EDT: SCLMWW>BOM_WARN: 231600z,WIND,WA_MW012
2019-05-23 09:16:11 EDT: SCLMWW>BOMSCL: Strong Wind Warning for coastal waters between Walpole and
2019-05-23 09:16:11 EDT: SCLMWW>BOMSCL: Bremer Bay for Thursday
2019-05-23 09:16:39 EDT: VK2GJ-2>VK2GJ-7: Directs=VK2AMW-1 VK2RHR-1
2019-05-23 09:16:58 EDT: WB2IFS-10>WB2IFS-1: testing aprs
2019-05-23 09:17:06 EDT: WB2IFS-10>WB2IFS-1: yay!
2019-05-23 09:17:19 EDT: DB0LUH-1>LU1HVK-1: rejUISS54}
2019-05-23 09:17:28 EDT: KM4KAW-9>KM4KAW: SitRep: 10.60852 66.31f
2019-05-23 09:17:38 EDT: WB2IFS-10>WB2IFS-1: yay!
2019-05-23 09:17:57 EDT: SGFFFW>NWS-WARN: 231900z,FLASH_FLOOD,KSC021-MOC097-145
2019-05-23 09:17:58 EDT: SGFFFW>NWS_WARN: 231900z,FLASH_FLOOD,KSC021-MOC097-145
2019-05-23 09:17:58 EDT: CLESVR>NWS-WARN: 231345z,SVR_STORM,OHC007-035-055-085-099-133-151-153-155
2019-05-23 09:17:58 EDT: CLESVR>NWS_WARN: 231345z,SVR_STORM,OHC007-035-055-085-099-133-151-153-155
2019-05-23 09:18:10 EDT: WB2IFS-10>WB2IFS-1: yay!
2019-05-23 09:18:20 EDT: VE3OMP>CLESVR: AA:OPERATOR NOT PRESENT
2019-05-23 09:18:58 EDT: CLESVR>NWS-WARN: 231400z,SVR_STORM,OHC007-PAC039-049
2019-05-23 09:18:58 EDT: CLESVR>NWS_WARN: 231400z,SVR_STORM,OHC007-PAC039-049
2019-05-23 09:19:15 EDT: WB2IFS-10>WB2IFS-1: yay!
2019-05-23 09:19:43 EDT: G0RSQ>G4FKH: A,-91.3,-108.2,-109.4,B,-95.5,-102.4,-104,C,-103.3,-109.6,-111.1,D,-100.3,-105.6,-106.9,E,-110.5,-113.7,-114.8
2019-05-23 09:19:59 EDT: AMASVR>NWS-WARN: 231330z,SVR_STORM,TXC111-205
2019-05-23 09:19:59 EDT: AMASVR>NWS_WARN: 231330z,SVR_STORM,TXC111-205
2019-05-23 09:19:59 EDT: SGFFFW>NWS-WARN: 231400z,FLASH_FLOOD,MOC043-077-109
2019-05-23 09:19:59 EDT: SGFFFW>NWS_WARN: 231400z,FLASH_FLOOD,MOC043-077-109
2019-05-23 09:19:59 EDT: CLESVR>NWS-WARN: 231400z,SVR_STORM,OHC007-PAC039-049
2019-05-23 09:19:59 EDT: CLESVR>NWS_WARN: 231400z,SVR_STORM,OHC007-PAC039-049
2019-05-23 09:20:51 EDT: WB2IFS-10>WB2IFS-1: yay!
2019-05-23 09:20:58 EDT: ILXFFW>NWS-WARN: 231545z,FLASH_FLOOD,ILC033-049-079
2019-05-23 09:20:58 EDT: ILXFFW>NWS_WARN: 231545z,FLASH_FLOOD,ILC033-049-079
2019-05-23 09:20:58 EDT: ILXTOR>NWS-WARN: 231345z,TORNADO,ILC101-159
2019-05-23 09:20:58 EDT: ILXTOR>NWS_WARN: 231345z,TORNADO,ILC101-159
2019-05-23 09:21:39 EDT: VK2GJ-2>VK2GJ-7: Directs=VK2AMW-1
2019-05-23 09:22:28 EDT: KM4KAW-9>KM4KAW: SitRep: 10.644 66.65f
< previous
FAQ · Blog · Discussion group · Linking to aprs.fi · AIS sites · Service status · Database statistics · Advertising on aprs.fi · Technical details · API · Change log · Planned changes · Credits and thanks · Terms Of Service · iPhone/iPad APRS